Time;durP1;ratioP1;P1;durP2;ratioP2;P2;SDS_P1;SDS_P2;PMS_P1;PMS_P2;Temp;Humidity;BMP_temperature;BMP_pressure;BME280_temperature;BME280_humidity;BME280_pressure;Samples;Min_cycle;Max_cycle;Signal;HPM_P1;HPM_P2
2022/06/16 00:01:32;;;;;;;6.25;2.53;;;;;;;14.43;47.51;101064.94;5053737;28;20095;-67
2022/06/16 00:03:59;;;;;;;4.10;2.08;;;;;;;14.42;47.49;101065.09;5053932;28;20057;-67
2022/06/16 00:06:26;;;;;;;8.85;2.20;;;;;;;14.39;47.56;101062.72;5053983;28;20103;-67
2022/06/16 00:08:52;;;;;;;7.55;2.40;;;;;;;14.34;47.60;101057.03;5053318;28;20049;-67
2022/06/16 00:11:22;;;;;;;11.20;2.58;;;;;;;14.38;47.67;101058.38;5053380;28;20131;-67
2022/06/16 00:13:51;;;;;;;5.97;2.83;;;;;;;14.41;47.60;101061.53;5053485;28;20144;-66
2022/06/16 00:16:21;;;;;;;7.00;2.40;;;;;;;14.37;47.61;101056.69;5053665;28;20086;-67
2022/06/16 00:18:49;;;;;;;5.65;2.58;;;;;;;14.35;47.81;101056.00;5052985;28;20084;-66
2022/06/16 00:21:16;;;;;;;11.63;3.13;;;;;;;14.34;47.86;101059.75;5053664;28;20053;-67
2022/06/16 00:23:43;;;;;;;7.82;2.30;;;;;;;14.32;48.13;101057.19;5053633;28;20045;-67
2022/06/16 00:26:16;;;;;;;4.55;2.28;;;;;;;14.24;48.30;101052.69;5054575;28;20056;-66
2022/06/16 00:28:43;;;;;;;5.43;2.22;;;;;;;14.14;48.65;101049.38;5053618;28;20118;-67
2022/06/16 00:31:11;;;;;;;5.90;2.47;;;;;;;14.10;48.62;101048.03;5053299;28;20095;-66
2022/06/16 00:33:38;;;;;;;11.85;2.63;;;;;;;14.04;48.75;101046.88;5053684;28;20393;-67
2022/06/16 00:36:05;;;;;;;5.40;2.20;;;;;;;14.01;49.05;101044.56;5053523;28;20128;-66
2022/06/16 00:38:32;;;;;;;7.43;2.90;;;;;;;14.05;49.25;101053.13;5054209;28;20441;-67
2022/06/16 00:40:59;;;;;;;5.05;2.10;;;;;;;14.01;49.37;101043.69;5053722;28;20088;-67
2022/06/16 00:43:26;;;;;;;11.73;2.35;;;;;;;13.98;49.65;101046.75;5053113;28;20045;-67
2022/06/16 00:45:56;;;;;;;10.38;2.70;;;;;;;13.93;49.68;101041.03;5053684;28;20144;-67
2022/06/16 00:48:23;;;;;;;5.28;2.20;;;;;;;13.92;49.60;101037.50;5053093;28;20053;-67
2022/06/16 00:50:54;;;;;;;12.50;2.85;;;;;;;13.85;49.93;101038.38;5053821;28;20089;-67
2022/06/16 00:53:22;;;;;;;4.63;2.33;;;;;;;13.69;50.12;101034.66;5054536;28;20041;-67
2022/06/16 00:55:50;;;;;;;7.35;2.20;;;;;;;13.71;50.09;101034.50;5058279;28;20060;-66
2022/06/16 00:58:18;;;;;;;7.80;2.63;;;;;;;13.73;50.30;101033.31;5039834;28;20048;-66
2022/06/16 01:00:47;;;;;;;2.83;2.08;;;;;;;13.68;50.27;101030.31;5057513;28;20132;-67
2022/06/16 01:04:51;;;;;;;5.03;2.15;;;;;;;13.67;50.41;101031.31;5057159;28;20049;-67
2022/06/16 01:09:54;;;;;;;8.48;2.85;;;;;;;13.67;50.49;101035.88;5057577;28;20163;-67
2022/06/16 01:16:08;;;;;;;9.20;2.63;;;;;;;13.66;50.90;101037.72;5058823;28;20102;-67
2022/06/16 01:19:12;;;;;;;5.53;2.60;;;;;;;13.48;51.11;101037.91;5056207;28;20409;-66
2022/06/16 01:21:47;;;;;;;7.72;2.20;;;;;;;13.41;51.50;101036.09;5056911;28;20124;-66
2022/06/16 01:24:35;;;;;;;5.13;2.50;;;;;;;13.39;51.57;101035.41;5056560;28;20133;-66
2022/06/16 01:27:10;;;;;;;13.57;2.40;;;;;;;13.45;51.61;101035.56;5057341;28;20485;-66
2022/06/16 01:30:01;;;;;;;8.75;2.67;;;;;;;13.44;51.77;101036.59;5056932;28;20055;-67
2022/06/16 01:32:50;;;;;;;6.07;2.23;;;;;;;13.42;51.68;101027.81;5057004;28;20072;-67
2022/06/16 01:35:41;;;;;;;5.63;2.00;;;;;;;13.32;52.15;101033.41;5057178;28;20080;-66
2022/06/16 01:38:14;;;;;;;4.45;2.17;;;;;;;13.37;52.23;101032.06;5057146;28;20048;-67
2022/06/16 01:41:07;;;;;;;5.53;2.10;;;;;;;13.40;52.41;101031.72;5057986;28;20490;-67
2022/06/16 01:43:47;;;;;;;7.28;2.60;;;;;;;13.32;52.71;101027.19;5056865;28;20103;-67
2022/06/16 01:46:21;;;;;;;6.72;2.25;;;;;;;13.25;53.08;101032.41;5056309;28;20132;-67
2022/06/16 01:48:53;;;;;;;9.35;2.60;;;;;;;13.21;53.25;101028.34;5056633;28;20078;-66
2022/06/16 01:51:42;;;;;;;9.43;2.38;;;;;;;13.15;53.79;101028.22;5056550;28;20538;-66
2022/06/16 01:54:45;;;;;;;6.75;2.42;;;;;;;13.08;54.03;101023.50;5056459;28;20084;-66
2022/06/16 01:57:41;;;;;;;6.70;2.28;;;;;;;13.04;54.56;101026.69;5055641;28;20049;-66
2022/06/16 02:00:11;;;;;;;9.73;2.63;;;;;;;12.97;54.89;101023.00;5056054;28;20452;-66
2022/06/16 02:02:40;;;;;;;7.20;2.63;;;;;;;12.90;55.45;101021.97;5056378;28;20128;-66
2022/06/16 02:05:24;;;;;;;5.70;2.92;;;;;;;12.87;55.58;101024.03;5055658;28;20358;-66
2022/06/16 02:08:02;;;;;;;6.13;2.35;;;;;;;12.86;55.91;101026.88;5056115;28;20109;-67
2022/06/16 02:10:34;;;;;;;5.55;2.38;;;;;;;12.86;55.97;101030.38;5056444;28;20508;-67
2022/06/16 02:13:04;;;;;;;7.05;3.17;;;;;;;12.85;56.06;101023.34;5055993;28;20452;-67
2022/06/16 02:15:38;;;;;;;5.07;2.40;;;;;;;12.88;56.38;101025.69;5054900;28;20071;-66
2022/06/16 02:18:09;;;;;;;8.45;2.90;;;;;;;12.83;56.47;101027.19;5054761;28;20067;-66
2022/06/16 02:20:49;;;;;;;8.75;2.42;;;;;;;12.78;56.67;101027.72;5055206;28;20239;-67
2022/06/16 02:23:16;;;;;;;5.05;2.60;;;;;;;12.76;56.98;101027.03;5055226;28;20068;-66
2022/06/16 02:25:45;;;;;;;5.18;2.58;;;;;;;12.68;57.31;101021.59;5056008;28;20136;-67
2022/06/16 02:28:12;;;;;;;8.68;2.75;;;;;;;12.60;57.62;101024.31;5054913;28;20076;-67
2022/06/16 02:30:53;;;;;;;6.18;3.10;;;;;;;12.58;57.76;101018.22;5055146;28;20084;-67
2022/06/16 02:33:45;;;;;;;12.10;3.17;;;;;;;12.58;57.94;101023.59;5054953;28;20069;-66
2022/06/16 02:36:34;;;;;;;7.20;2.83;;;;;;;12.58;58.05;101023.59;5055007;28;20543;-67
2022/06/16 02:39:19;;;;;;;7.85;2.95;;;;;;;12.52;58.35;101011.69;5054998;28;20049;-65
2022/06/16 02:42:01;;;;;;;14.73;3.50;;;;;;;12.48;58.58;101009.47;5054513;28;20131;-65
2022/06/16 02:45:01;;;;;;;11.25;2.92;;;;;;;12.56;58.56;101009.50;5055705;28;20132;-66
2022/06/16 02:47:45;;;;;;;7.25;2.75;;;;;;;12.37;59.17;101008.78;5054784;28;20140;-65
2022/06/16 02:50:26;;;;;;;8.68;3.38;;;;;;;12.45;59.03;101020.56;5054544;28;20084;-66
2022/06/16 02:53:01;;;;;;;7.13;2.78;;;;;;;12.46;58.61;101019.56;5054566;28;20045;-66
2022/06/16 02:55:35;;;;;;;7.07;2.72;;;;;;;12.59;58.58;101014.53;5055421;28;20080;-67
2022/06/16 02:58:03;;;;;;;9.95;2.92;;;;;;;12.57;58.98;101008.47;5055014;28;20444;-66
2022/06/16 03:00:36;;;;;;;4.95;3.00;;;;;;;12.46;59.01;101000.72;5055264;28;20063;-66
2022/06/16 03:03:23;;;;;;;8.18;3.00;;;;;;;12.41;59.22;101007.44;5054619;28;20135;-66
2022/06/16 03:05:55;;;;;;;6.80;2.92;;;;;;;12.30;59.49;101015.81;5054713;28;20459;-66
2022/06/16 03:08:23;;;;;;;13.25;3.63;;;;;;;12.25;59.86;101010.09;5054391;28;20076;-66
2022/06/16 03:10:53;;;;;;;5.38;2.67;;;;;;;12.26;59.68;101009.09;5054773;28;20091;-66
2022/06/16 03:13:28;;;;;;;5.40;2.78;;;;;;;12.25;59.86;101007.41;5053960;28;20113;-66
2022/06/16 03:15:56;;;;;;;9.95;4.07;;;;;;;12.26;59.87;101005.56;5054103;28;20548;-66
2022/06/16 03:18:24;;;;;;;10.57;3.67;;;;;;;12.18;60.03;101011.78;5054095;28;20057;-66
2022/06/16 03:20:52;;;;;;;8.02;3.47;;;;;;;12.16;60.01;101014.59;5054355;28;20079;-66
2022/06/16 03:23:19;;;;;;;10.88;3.63;;;;;;;12.26;59.96;101021.69;5053709;28;20081;-66
2022/06/16 03:25:46;;;;;;;8.35;2.90;;;;;;;12.19;60.08;101018.81;5053665;28;20071;-66
2022/06/16 03:28:13;;;;;;;6.35;3.20;;;;;;;12.16;60.27;101021.84;5054209;28;20143;-66
2022/06/16 03:30:41;;;;;;;10.25;3.35;;;;;;;12.08;60.49;101028.03;5053899;28;20089;-66
2022/06/16 03:33:10;;;;;;;10.05;3.22;;;;;;;12.21;60.22;101026.72;5053870;28;20080;-66
2022/06/16 03:35:37;;;;;;;7.35;3.40;;;;;;;12.23;60.12;101022.88;5053930;28;20127;-66
2022/06/16 03:38:41;;;;;;;10.68;3.10;;;;;;;12.32;59.78;101016.50;5035780;28;20145;-66
2022/06/16 03:40:56;;;;;;;9.15;3.13;;;;;;;12.32;60.01;101013.81;5051391;28;20081;-66
2022/06/16 03:43:23;;;;;;;12.55;3.58;;;;;;;12.22;60.31;101015.81;5053562;28;20081;-66
2022/06/16 03:45:50;;;;;;;9.15;3.35;;;;;;;12.27;60.26;101016.16;5054259;28;20084;-66
2022/06/16 03:48:16;;;;;;;8.40;3.33;;;;;;;12.44;59.90;101024.25;5054530;28;20477;-66
2022/06/16 03:50:43;;;;;;;9.35;3.20;;;;;;;12.41;59.86;101017.34;5053612;28;20139;-67
2022/06/16 03:53:10;;;;;;;5.65;2.80;;;;;;;12.35;60.01;101015.34;5053649;28;20111;-66
2022/06/16 03:55:37;;;;;;;7.60;3.53;;;;;;;12.27;60.19;101013.47;5053793;28;20099;-66
2022/06/16 03:58:03;;;;;;;5.25;3.10;;;;;;;12.29;60.28;101014.16;5054009;28;20044;-66
2022/06/16 04:00:30;;;;;;;6.35;2.85;;;;;;;12.43;60.01;101019.91;5054332;28;20084;-66
2022/06/16 04:05:42;;;;;;;8.02;3.42;;;;;;;12.69;59.61;101020.59;5054007;28;20081;-66
2022/06/16 04:08:10;;;;;;;8.25;3.63;;;;;;;12.75;59.51;101014.56;5053455;28;20145;-66
2022/06/16 04:10:37;;;;;;;8.00;3.20;;;;;;;12.76;59.57;101005.47;5054316;28;20524;-67
2022/06/16 04:13:04;;;;;;;6.45;3.10;;;;;;;12.71;59.73;101010.50;5053574;28;20053;-65
2022/06/16 04:15:31;;;;;;;8.18;3.50;;;;;;;12.54;60.24;101008.81;5054124;28;20095;-67
2022/06/16 04:17:58;;;;;;;10.23;3.30;;;;;;;12.39;60.76;101011.31;5053754;28;20152;-66
2022/06/16 04:20:25;;;;;;;12.45;3.58;;;;;;;12.32;61.03;101023.75;5053503;28;20463;-66
2022/06/16 04:22:51;;;;;;;7.35;3.42;;;;;;;12.27;61.36;101020.69;5053232;28;20147;-67
2022/06/16 04:25:21;;;;;;;6.00;3.58;;;;;;;12.24;61.38;101021.00;5053942;28;20529;-67
2022/06/16 04:27:48;;;;;;;5.88;2.92;;;;;;;12.13;62.08;101024.84;5053154;28;20091;-66
2022/06/16 04:30:16;;;;;;;6.70;3.50;;;;;;;12.15;61.90;101022.84;5057296;28;20091;-66
2022/06/16 04:32:43;;;;;;;9.30;3.85;;;;;;;12.15;61.93;101025.53;5057308;28;20130;-67
2022/06/16 04:35:10;;;;;;;9.82;3.45;;;;;;;12.11;62.34;101018.81;5057394;28;20095;-66
2022/06/16 04:37:37;;;;;;;7.63;3.33;;;;;;;12.20;61.98;101027.72;5057751;28;20076;-67
2022/06/16 04:40:04;;;;;;;8.23;4.35;;;;;;;12.33;61.61;101023.56;5057246;28;20084;-66
2022/06/16 04:42:30;;;;;;;7.38;3.30;;;;;;;12.41;61.30;101022.72;5057479;28;20076;-65
2022/06/16 04:44:57;;;;;;;8.20;3.53;;;;;;;12.41;61.29;101028.13;5057461;28;20128;-65
2022/06/16 04:47:23;;;;;;;6.30;3.13;;;;;;;12.40;60.91;101031.81;5057361;28;20505;-66
2022/06/16 04:49:50;;;;;;;8.73;3.65;;;;;;;12.26;61.62;101027.91;5057133;28;20092;-67
2022/06/16 04:52:17;;;;;;;9.85;3.88;;;;;;;12.20;62.01;101027.72;5057135;28;20505;-66
2022/06/16 04:54:45;;;;;;;5.13;3.40;;;;;;;12.23;61.96;101036.31;5056581;28;20098;-66
2022/06/16 04:57:12;;;;;;;9.35;3.53;;;;;;;12.29;61.91;101035.66;5056925;28;20106;-66
2022/06/16 04:59:39;;;;;;;10.93;4.03;;;;;;;12.40;61.50;101038.03;5039470;28;20084;-66
2022/06/16 05:02:05;;;;;;;9.00;3.55;;;;;;;12.47;61.39;101037.38;5057116;28;20152;-66
2022/06/16 05:04:33;;;;;;;10.02;4.00;;;;;;;12.46;61.17;101033.03;5056570;28;20041;-66
2022/06/16 05:07:01;;;;;;;7.38;3.60;;;;;;;12.38;61.25;101034.69;5056809;28;20076;-66
2022/06/16 05:09:28;;;;;;;13.40;4.10;;;;;;;12.38;61.50;101037.38;5056399;28;20136;-67
2022/06/16 05:11:54;;;;;;;8.38;4.05;;;;;;;12.58;61.18;101039.75;5057168;28;20087;-66
2022/06/16 05:14:21;;;;;;;14.65;3.47;;;;;;;12.53;60.97;101042.97;5048309;28;20049;-66
2022/06/16 05:16:48;;;;;;;9.43;3.83;;;;;;;12.52;60.87;101049.34;5056897;28;20057;-66
2022/06/16 05:19:15;;;;;;;8.13;3.65;;;;;;;12.54;60.71;101049.19;5057068;28;20493;-67
2022/06/16 05:21:42;;;;;;;9.77;3.47;;;;;;;12.55;60.67;101049.00;5056563;28;20144;-66
2022/06/16 05:24:08;;;;;;;12.73;3.58;;;;;;;12.61;60.67;101042.97;5056910;28;20466;-67
2022/06/16 05:26:35;;;;;;;8.95;3.80;;;;;;;12.61;60.62;101044.81;5056514;28;20135;-67
2022/06/16 05:29:02;;;;;;;10.32;3.60;;;;;;;12.65;60.56;101049.69;5056594;28;20068;-67
2022/06/16 05:31:28;;;;;;;8.85;3.45;;;;;;;12.71;60.31;101053.59;5056389;28;20076;-67
2022/06/16 05:33:55;;;;;;;11.55;3.38;;;;;;;12.81;59.97;101053.47;5057215;28;20091;-66
2022/06/16 05:36:21;;;;;;;11.40;3.65;;;;;;;12.92;59.49;101057.69;5053325;28;20106;-65
2022/06/16 05:38:48;;;;;;;8.98;3.75;;;;;;;12.99;59.43;101064.06;5056701;28;20072;-67
2022/06/16 05:41:17;;;;;;;6.88;3.60;;;;;;;13.08;59.09;101068.47;5055279;28;20400;-66
2022/06/16 05:43:44;;;;;;;9.95;3.33;;;;;;;13.29;58.53;101067.94;5056816;28;20045;-67
2022/06/16 05:46:17;;;;;;;8.05;3.13;;;;;;;13.28;58.14;101058.16;5055518;28;20059;-66
2022/06/16 05:48:44;;;;;;;8.80;3.17;;;;;;;13.29;58.33;101057.16;5056345;28;20060;-67
2022/06/16 05:51:12;;;;;;;5.63;2.88;;;;;;;13.24;58.15;101054.97;5056114;28;20472;-66
2022/06/16 05:53:39;;;;;;;10.13;3.38;;;;;;;13.35;57.99;101057.34;5055990;28;20477;-66
2022/06/16 05:56:11;;;;;;;9.32;3.30;;;;;;;13.42;58.14;101060.16;5055987;28;20103;-66
2022/06/16 05:58:37;;;;;;;10.20;3.53;;;;;;;13.52;57.65;101059.97;5088323;22;20033;-69
2022/06/16 06:01:05;;;;;;;10.40;3.25;;;;;;;13.57;57.13;101057.63;5033539;28;20061;-69
2022/06/16 06:03:32;;;;;;;12.27;2.97;;;;;;;13.63;57.04;101065.03;5035633;28;20080;-69
2022/06/16 06:05:59;;;;;;;12.55;3.30;;;;;;;13.67;56.67;101060.97;5035480;28;20140;-70
2022/06/16 06:26:08;;;;;;;18.67;3.78;;;;;;;14.51;56.17;101077.53;5152296;27;20428;-66
2022/06/16 06:28:35;;;;;;;9.85;3.53;;;;;;;14.43;55.62;101080.28;5152703;27;20100;-67
2022/06/16 06:31:02;;;;;;;12.43;3.40;;;;;;;14.65;55.85;101084.03;5152589;27;20050;-66
2022/06/16 06:33:28;;;;;;;8.82;2.88;;;;;;;14.99;55.13;101098.00;5152695;27;20055;-67
2022/06/16 06:35:57;;;;;;;7.50;3.10;;;;;;;15.08;54.19;101101.47;5153029;27;20416;-67
2022/06/16 06:38:23;;;;;;;6.85;3.08;;;;;;;15.07;53.45;101093.56;5152599;27;20047;-67
2022/06/16 06:40:50;;;;;;;7.47;3.00;;;;;;;14.97;52.91;101093.78;5153227;27;20047;-67
2022/06/16 06:43:16;;;;;;;7.85;3.17;;;;;;;14.82;53.27;101085.63;5153747;27;20092;-67
2022/06/16 06:45:43;;;;;;;9.30;3.03;;;;;;;14.71;54.10;101092.28;5152972;27;20430;-66
2022/06/16 06:48:09;;;;;;;12.25;2.70;;;;;;;15.08;53.74;101090.66;5153110;27;20047;-67
2022/06/16 06:50:38;;;;;;;10.63;4.03;;;;;;;14.80;53.23;101092.22;5152764;27;20146;-67
2022/06/16 06:53:06;;;;;;;9.65;2.88;;;;;;;14.97;52.32;101088.41;5152808;27;20141;-67
2022/06/16 06:55:36;;;;;;;7.43;3.20;;;;;;;15.19;52.30;101090.25;5152928;27;20046;-68
2022/06/16 06:58:06;;;;;;;10.60;2.70;;;;;;;15.32;51.91;101088.78;5153314;27;20476;-68
2022/06/16 07:00:33;;;;;;;15.87;3.47;;;;;;;15.42;51.55;101094.78;5152219;27;20043;-68
2022/06/16 07:03:00;;;;;;;7.40;2.75;;;;;;;15.52;51.37;101102.63;5152561;27;20051;-68
2022/06/16 07:05:26;;;;;;;8.63;2.80;;;;;;;15.67;50.95;101101.69;5152076;27;20141;-68
2022/06/16 07:07:56;;;;;;;7.82;3.15;;;;;;;16.06;50.24;101111.41;5152313;27;20097;-68
2022/06/16 07:10:23;;;;;;;14.80;2.88;;;;;;;16.48;49.43;101117.16;5152542;27;20057;-69
2022/06/16 07:12:49;;;;;;;8.27;2.85;;;;;;;16.94;48.18;101117.69;5152002;27;20138;-69
2022/06/16 07:15:16;;;;;;;10.30;3.30;;;;;;;17.12;47.31;101109.94;5143172;27;20043;-68
2022/06/16 07:17:43;;;;;;;7.63;2.70;;;;;;;17.11;47.55;101110.16;5131192;27;20055;-69
2022/06/16 07:20:11;;;;;;;8.68;2.58;;;;;;;16.97;47.02;101117.31;5131545;27;20474;-68
2022/06/16 07:22:37;;;;;;;11.00;2.60;;;;;;;16.85;47.48;101116.13;5131379;27;20082;-67
2022/06/16 07:25:04;;;;;;;8.13;2.70;;;;;;;16.59;47.21;101128.34;5128399;27;20142;-67
2022/06/16 07:27:31;;;;;;;9.68;2.65;;;;;;;16.65;47.49;101133.00;5116861;28;20081;-67
2022/06/16 07:29:57;;;;;;;6.65;2.08;;;;;;;17.26;46.59;101142.59;5117645;28;20479;-67
2022/06/16 07:32:24;;;;;;;9.27;2.40;;;;;;;17.70;45.36;101139.69;5117229;28;20102;-67
2022/06/16 07:34:51;;;;;;;4.75;2.17;;;;;;;17.88;45.18;101157.34;5117129;28;20044;-67
2022/06/16 07:37:18;;;;;;;6.35;2.40;;;;;;;17.84;45.20;101146.03;5117274;28;20131;-67
2022/06/16 07:39:45;;;;;;;9.95;2.45;;;;;;;17.66;46.10;101157.41;5117139;28;20466;-67
2022/06/16 07:42:12;;;;;;;10.02;2.75;;;;;;;17.53;45.36;101152.69;5117140;28;20048;-68
2022/06/16 07:44:39;;;;;;;8.13;2.40;;;;;;;17.49;45.91;101143.28;5116789;28;20130;-67
2022/06/16 07:47:06;;;;;;;5.88;2.20;;;;;;;17.66;45.54;101134.84;5116681;28;20055;-67
2022/06/16 07:49:33;;;;;;;8.27;2.42;;;;;;;18.14;43.87;101132.25;5116950;28;20490;-67
2022/06/16 07:52:00;;;;;;;7.32;1.88;;;;;;;18.20;43.48;101126.91;5117083;28;20142;-67
2022/06/16 07:54:27;;;;;;;12.10;2.63;;;;;;;18.09;42.94;101119.25;5116881;27;20048;-69
2022/06/16 07:57:14;;;;;;;9.73;2.50;;;;;;;17.84;43.88;101117.03;5116972;28;20062;-68
2022/06/16 07:59:57;;;;;;;8.60;2.25;;;;;;;17.63;44.54;101114.38;5116936;28;20047;-67
2022/06/16 08:02:25;;;;;;;9.85;2.60;;;;;;;17.46;45.14;101121.97;5117233;28;20112;-68
2022/06/16 08:04:52;;;;;;;8.60;2.20;;;;;;;17.78;44.50;101127.84;5116690;28;20516;-67
2022/06/16 08:07:19;;;;;;;10.02;2.45;;;;;;;18.08;43.67;101125.75;5117240;28;20082;-68
2022/06/16 08:09:46;;;;;;;4.68;1.90;;;;;;;18.50;42.88;101135.59;5116626;28;20439;-67
2022/06/16 08:12:13;;;;;;;6.32;2.30;;;;;;;18.89;41.85;101138.63;5116241;28;20057;-69
2022/06/16 08:14:44;;;;;;;8.50;1.92;;;;;;;19.10;41.41;101146.66;5116785;28;20447;-67
2022/06/16 08:17:17;;;;;;;8.38;2.28;;;;;;;19.18;40.96;101151.09;5116378;28;20406;-69
2022/06/16 08:19:44;;;;;;;7.45;2.22;;;;;;;19.50;40.49;101160.31;5116273;28;20454;-68
2022/06/16 08:22:12;;;;;;;10.55;1.90;;;;;;;19.43;40.46;101151.31;5116352;28;20036;-68
2022/06/16 08:24:40;;;;;;;4.60;2.22;;;;;;;19.68;39.80;101151.56;5115897;28;20112;-68
2022/06/16 08:27:07;;;;;;;4.80;1.88;;;;;;;19.98;39.06;101153.84;5116479;28;20042;-68
2022/06/16 08:29:35;;;;;;;8.80;2.03;;;;;;;20.01;39.20;101156.13;5116145;28;20051;-68
2022/06/16 08:32:02;;;;;;;10.60;2.33;;;;;;;20.03;38.90;101151.31;5115876;28;20538;-68
2022/06/16 08:34:29;;;;;;;3.40;2.03;;;;;;;19.93;39.46;101149.88;5115720;28;20147;-68
2022/06/16 08:36:55;;;;;;;8.95;1.80;;;;;;;20.56;37.12;101151.16;5115304;28;20083;-68
2022/06/16 08:39:22;;;;;;;9.10;2.13;;;;;;;20.34;37.71;101156.88;5115879;28;20070;-67
2022/06/16 08:42:09;;;;;;;11.95;2.00;;;;;;;20.17;38.49;101164.66;5115559;28;20131;-69
2022/06/16 08:44:42;;;;;;;8.30;2.42;;;;;;;20.24;37.56;101161.94;5115783;28;20043;-69
2022/06/16 08:47:18;;;;;;;9.27;2.08;;;;;;;20.17;38.00;101167.38;5115818;28;20082;-67
2022/06/16 08:50:07;;;;;;;8.05;1.90;;;;;;;20.17;38.63;101172.00;5115892;28;20047;-67
2022/06/16 08:52:49;;;;;;;5.95;1.90;;;;;;;20.78;36.69;101173.53;5115458;28;20047;-68
2022/06/16 08:56:03;;;;;;;10.77;2.33;;;;;;;20.24;37.54;101177.44;5115215;28;20134;-69
2022/06/16 08:58:46;;;;;;;10.88;2.25;;;;;;;20.76;36.98;101175.63;5052761;28;20087;-68
2022/06/16 09:01:34;;;;;;;7.30;2.17;;;;;;;21.04;36.77;101176.13;5052934;28;20064;-68
2022/06/16 09:04:09;;;;;;;7.50;2.10;;;;;;;21.40;36.06;101176.53;5052692;28;20049;-68
2022/06/16 09:07:06;;;;;;;11.90;2.65;;;;;;;21.56;35.74;101181.44;5053295;28;20395;-68
2022/06/16 09:10:14;;;;;;;8.25;2.15;;;;;;;20.61;37.39;101189.53;5052813;28;20063;-68
2022/06/16 09:13:11;;;;;;;10.75;2.97;;;;;;;21.01;35.78;101194.78;5052379;28;20440;-69
2022/06/16 09:15:52;;;;;;;11.65;2.05;;;;;;;21.00;35.91;101188.50;5052306;28;20075;-67
2022/06/16 09:18:33;;;;;;;7.18;1.88;;;;;;;20.75;35.46;101191.13;5052341;28;20155;-73
2022/06/16 09:21:58;;;;;;;5.68;2.00;;;;;;;20.87;35.91;101189.41;5052256;28;20475;-68
2022/06/16 09:25:08;;;;;;;8.88;1.80;;;;;;;20.87;35.67;101194.88;5012216;28;20054;-68
2022/06/16 09:27:45;;;;;;;13.70;2.28;;;;;;;20.24;37.44;101196.50;4987178;28;20049;-67
2022/06/16 09:30:21;;;;;;;4.75;1.88;;;;;;;20.00;38.00;101198.84;5067418;28;20135;-68
2022/06/16 09:32:53;;;;;;;9.48;1.95;;;;;;;19.75;38.82;101190.50;5071894;28;20087;-68
2022/06/16 09:35:25;;;;;;;3.25;1.80;;;;;;;19.92;38.39;101208.09;5071917;28;20107;-67
2022/06/16 09:37:58;;;;;;;10.57;2.58;;;;;;;21.02;36.31;101199.19;5072011;28;20535;-69
2022/06/16 09:40:55;;;;;;;5.53;1.85;;;;;;;21.55;34.78;101201.59;5071793;28;20103;-69
2022/06/16 09:43:30;;;;;;;7.75;2.42;;;;;;;20.95;37.03;101195.69;5072051;28;20504;-69
2022/06/16 09:46:14;;;;;;;7.47;1.75;;;;;;;21.57;35.46;101204.97;5072474;28;20381;-69
2022/06/16 09:48:59;;;;;;;6.68;1.90;;;;;;;21.88;34.57;101200.56;5071378;28;20052;-69
2022/06/16 09:51:31;;;;;;;6.18;2.13;;;;;;;22.04;34.18;101199.94;5071712;28;20130;-69
2022/06/16 09:54:25;;;;;;;9.27;2.17;;;;;;;-149.70;100.00;63222.41;5071821;28;20143;-69
2022/06/16 09:57:04;;;;;;;10.30;2.08;;;;;;;22.71;33.15;101208.31;5114754;28;20086;-69
2022/06/16 09:59:41;;;;;;;10.50;2.00;;;;;;;22.08;34.57;101203.91;5114435;28;20092;-68
2022/06/16 10:02:21;;;;;;;9.02;2.05;;;;;;;22.10;34.53;101210.00;5114474;28;20053;-67
2022/06/16 10:04:50;;;;;;;5.28;2.13;;;;;;;21.62;35.08;101219.59;5115053;28;20052;-68
2022/06/16 10:07:24;;;;;;;5.35;1.80;;;;;;;21.83;34.27;101204.75;5115222;28;20058;-69
2022/06/16 10:10:23;;;;;;;7.97;1.98;;;;;;;21.70;34.93;101199.41;5114635;28;20079;-69
2022/06/16 10:13:11;;;;;;;9.20;2.00;;;;;;;21.12;36.18;101196.88;5114608;28;20052;-69
2022/06/16 10:15:52;;;;;;;5.80;2.03;;;;;;;20.86;36.59;101197.81;5114258;28;20044;-67
2022/06/16 10:18:19;;;;;;;9.55;2.53;;;;;;;20.84;37.08;101208.94;5114285;28;20082;-68
2022/06/16 10:20:45;;;;;;;4.10;1.77;;;;;;;20.66;37.02;101215.09;5114700;28;20054;-68
2022/06/16 10:23:18;;;;;;;5.72;1.95;;;;;;;20.32;37.39;101213.50;5114671;28;20086;-67
2022/06/16 10:26:01;;;;;;;6.40;1.95;;;;;;;20.65;36.71;101207.94;5114391;28;20146;-68
2022/06/16 10:28:28;;;;;;;7.97;2.22;;;;;;;20.62;37.18;101210.28;5114827;28;20079;-67
2022/06/16 10:30:58;;;;;;;7.88;1.98;;;;;;;20.89;35.92;101211.00;5114404;28;20054;-68
2022/06/16 10:33:31;;;;;;;5.22;2.10;;;;;;;20.60;36.36;101207.78;5114259;28;20054;-67
2022/06/16 10:36:04;;;;;;;6.45;2.05;;;;;;;20.71;36.19;101214.44;5114261;28;20134;-69
2022/06/16 10:38:36;;;;;;;3.25;1.98;;;;;;;20.67;36.32;101216.75;5114179;28;20383;-68
2022/06/16 10:41:29;;;;;;;5.65;1.83;;;;;;;20.48;36.57;101217.66;5113588;28;20083;-68
2022/06/16 10:43:59;;;;;;;7.43;2.30;;;;;;;21.16;35.52;101203.56;5107419;28;20043;-67
2022/06/16 10:46:35;;;;;;;12.80;1.88;;;;;;;20.85;35.78;101201.59;5114230;28;20047;-67
2022/06/16 10:49:06;;;;;;;5.63;1.75;;;;;;;20.75;35.72;101202.03;5113860;28;20047;-69
2022/06/16 10:51:45;;;;;;;8.88;2.25;;;;;;;20.63;36.07;101220.16;5114409;28;20491;-69
2022/06/16 10:54:13;;;;;;;7.75;2.40;;;;;;;20.75;35.89;101226.59;5113192;28;20104;-67
2022/06/16 10:56:44;;;;;;;6.75;1.92;;;;;;;21.07;35.08;101218.47;5114066;28;20040;-68
2022/06/16 10:59:26;;;;;;;8.20;2.45;;;;;;;20.12;37.14;101232.59;5114792;28;20138;-67
2022/06/16 11:02:03;;;;;;;5.10;2.33;;;;;;;19.95;37.43;101234.91;5117068;28;20138;-69
2022/06/16 11:04:36;;;;;;;7.63;1.98;;;;;;;20.16;37.42;101235.72;5117576;28;20134;-67
2022/06/16 11:07:03;;;;;;;6.15;1.92;;;;;;;19.98;37.23;101239.09;5117967;28;20169;-67
2022/06/16 11:09:33;;;;;;;5.75;1.88;;;;;;;19.90;37.26;101248.31;5117827;28;20055;-67
2022/06/16 11:12:06;;;;;;;6.03;2.08;;;;;;;19.91;37.13;101247.25;5117824;28;20051;-67
2022/06/16 11:14:35;;;;;;;7.30;2.08;;;;;;;19.81;37.21;101249.56;5117746;28;20055;-69
2022/06/16 11:17:09;;;;;;;8.68;2.00;;;;;;;20.03;36.98;101252.06;5117832;28;20454;-68
2022/06/16 11:19:43;;;;;;;8.07;1.95;;;;;;;20.16;36.79;101255.63;5117851;28;20047;-67
2022/06/16 11:22:38;;;;;;;9.32;1.88;;;;;;;20.42;36.25;101252.06;5117115;28;20138;-69
2022/06/16 11:25:07;;;;;;;7.57;1.95;;;;;;;20.37;36.20;101251.00;5116991;28;20548;-68
2022/06/16 11:27:41;;;;;;;7.10;1.80;;;;;;;20.92;35.05;101256.94;5117706;28;20142;-69
2022/06/16 11:30:51;;;;;;;7.45;1.65;;;;;;;21.05;35.16;101253.34;5117608;28;20094;-69
2022/06/16 11:36:49;;;;;;;4.00;2.03;;;;;;;20.83;35.66;101250.03;5117259;28;20083;-68
2022/06/16 11:39:37;;;;;;;6.22;2.13;;;;;;;19.90;37.02;101259.22;5117181;27;20479;-67
2022/06/16 11:42:09;;;;;;;10.77;1.88;;;;;;;19.75;37.48;101269.44;5116792;28;20134;-67
2022/06/16 11:44:44;;;;;;;6.07;2.10;;;;;;;19.68;37.35;101261.28;5116946;28;20052;-68
2022/06/16 11:47:42;;;;;;;7.07;1.75;;;;;;;19.60;37.83;101264.16;5116550;28;20087;-67
2022/06/16 11:50:33;;;;;;;4.25;1.85;;;;;;;19.57;37.54;101261.84;5116739;28;20054;-69
2022/06/16 11:53:18;;;;;;;4.97;1.92;;;;;;;19.34;38.08;101273.09;5116922;28;20079;-69
2022/06/16 11:56:06;;;;;;;6.38;1.90;;;;;;;19.22;38.29;101261.16;5116799;28;20135;-68
2022/06/16 11:58:57;;;;;;;10.65;2.25;;;;;;;19.24;38.07;101257.19;5116876;28;20079;-68
2022/06/16 12:01:35;;;;;;;10.25;2.17;;;;;;;19.18;38.07;101265.31;5116766;28;20134;-67
2022/06/16 12:04:27;;;;;;;9.02;2.08;;;;;;;19.09;38.12;101266.53;5117131;28;20087;-67
2022/06/16 12:07:12;;;;;;;;;;;;;;;19.25;37.79;101256.13;5117675;27;20048;-67
2022/06/16 12:10:12;;;;;;;15.65;2.20;;;;;;;19.32;37.04;101263.47;5117079;28;20358;-69
2022/06/16 12:13:08;;;;;;;7.55;2.13;;;;;;;19.34;37.12;101259.50;5087858;28;20120;-68
2022/06/16 12:15:44;;;;;;;7.15;1.85;;;;;;;19.36;37.31;101248.41;5114167;28;20499;-67
2022/06/16 12:18:20;;;;;;;2.92;1.75;;;;;;;19.16;38.46;101251.91;5115955;28;20080;-68
2022/06/16 12:21:07;;;;;;;5.63;1.88;;;;;;;19.18;38.53;101252.56;5116409;28;20139;-68
2022/06/16 12:23:52;;;;;;;6.65;1.98;;;;;;;19.33;37.93;101257.81;5115664;28;20108;-68
2022/06/16 12:26:51;;;;;;;7.30;1.95;;;;;;;19.32;38.07;101258.03;5116287;28;20531;-68